Flight Track Log - Related Links

Times and Time Zones

All times are in EDT time to prevent confusion due to time zone crossing. See the CTL312 flight status page for this flight to view local times or setup timezone preferences in your user account.

Time Position Orientation Groundspeed Altitude Reporting Facility
EDT Latitude Longitude Course Direction KTS MPH feet Rate Location/Type
Tue 09:59:05 PM 41.7614 -82.3119 299° West 150 173 6,100  Level Cleveland Center
Tue 10:00:06 PM 41.7814 -82.3597 299° West 147 169 6,100  Level Cleveland Center
Tue 10:01:06 PM 41.7933 -82.4103 288° West 147 169 6,100  Level Cleveland Center
Tue 10:02:01 PM 41.8028 -82.4606 284° West 147 169 6,100  Level Cleveland Center
Tue 10:03:08 PM 41.8122 -82.5167 283° West 146 168 6,100  Level Cleveland Center
Tue 10:03:36 PM 41.8203 -82.5419 293° West 149 171 6,100  Level Cleveland Center
Tue 10:04:37 PM 41.8319 -82.5953 286° West 151 174 6,100  Level Cleveland Center
Tue 10:05:38 PM 41.8539 -82.6406 303° West 154 177 6,100  Level Cleveland Center
Tue 10:06:39 PM 41.8950 -82.6725 330° Northwest 157 181 6,100  Level Cleveland Center
Tue 10:07:39 PM 41.9319 -82.7044 327° Northwest 158 182 6,100  Level Cleveland Center
Tue 10:08:40 PM 41.9689 -82.7336 330° Northwest 158 182 6,100  Level Cleveland Center
Tue 10:09:41 PM 42.0058 -82.7683 325° Northwest 158 182 6,100  Level Cleveland Center
Tue 10:10:42 PM 42.0450 -82.7947 333° Northwest 156 180 6,100  Level Cleveland Center
Tue 10:11:43 PM 42.0839 -82.8269 328° Northwest 156 180 6,100  Level Cleveland Center
Tue 10:12:43 PM 42.1189 -82.8561 328° Northwest 151 174 6,100  Level Cleveland Center
Tue 10:13:44 PM 42.1578 -82.8856 331° Northwest 153 176 6,100  Level Cleveland Center
Tue 10:14:45 PM 42.1947 -82.9178 327° Northwest 153 176 6,100  Level Cleveland Center
Tue 10:15:52 PM 42.2358 -82.9472 332° Northwest 152 175 6,100  Level Cleveland Center
Tue 10:16:52 PM 42.2725 -82.9825 325° Northwest 155 178 6,100  Level Cleveland Center
Tue 10:17:53 PM 42.3094 -83.0092 332° Northwest 153 176 6,100  Level Cleveland Center
Tue 10:18:54 PM 42.3422 -83.0442 322° Northwest 153 176 6,100 -50 Level Cleveland Center
Tue 10:19:54 PM 42.3789 -83.0736 329° Northwest 155 178 6,000 -347 Descending Cleveland Center
Tue 10:20:55 PM 42.4181 -83.1061 329° Northwest 180 207 5,400 -738 Descending Cleveland Center
Tue 10:21:56 PM 42.4628 -83.1472 326° Northwest 179 206 4,500 -793 Descending Cleveland Center
Tue 10:22:56 PM 42.4994 -83.1853 323° Northwest 174 200 3,800 -574 Descending Cleveland Center
Tue 10:23:51 PM 42.5319 -83.2261 317° Northwest 167 192 3,400 -362 Descending Cleveland Center
Tue 10:24:52 PM 42.5686 -83.2672 320° Northwest 164 189 3,100 -298 Descending Cleveland Center
Tue 10:25:52 PM 42.6031 -83.3025 323° Northwest 159 183 2,800 -446 Descending Cleveland Center
Tue 10:26:53 PM 42.6356 -83.3433 317° Northwest 161 185 2,200 -541 Descending Cleveland Center
Tue 10:27:54 PM 42.6617 -83.3783 315° West 114 131 1,700 -492 Descending Cleveland Center

Login

Don't have an account? Register now (free) for customized features, flight alerts, and more!